Rosebud, Illinois
Current Conditions -  °F | °C
As of 11:55 PM on Monday 26 Jan 2015 (Local Time) from KM30 Reporting Station
Overcast Overcast  
Wind Chill: 33°   Ceiling: 5500
Heat Index: 37°   Visibility: 10mi
Dew Point: 32°   Wind: 5mph
Humidity: 84%   Direction: 180°S
Pressure: 29.9"   Gusts: NA
Location:  37.3224°N, 88.5774°W
Report Text: KM30 270555Z AUTO 18004KT 10SM OVC055 03/00 A2990 RMK AO2 T00260002 10028 20025 400301015
Loading
Personal Weather Stations






























Interactive Weather Map New forecast layout! Learn more

10-Day Weather Forecast

Advertisements
Track Severe Weather on mobile